Time;durP1;ratioP1;P1;durP2;ratioP2;P2;SDS_P1;SDS_P2;PMS_P1;PMS_P2;Temp;Humidity;BMP_temperature;BMP_pressure;BME280_temperature;BME280_humidity;BME280_pressure;Samples;Min_cycle;Max_cycle;Signal;HPM_P1;HPM_P2
2021/08/03 00:01:16;;;;;;;2.60;2.30;;;15.40;99.90;;;;;;5049020;28;20327;-80
2021/08/03 00:03:54;;;;;;;3.63;2.47;;;15.40;99.90;;;;;;5049013;28;20243;-79
2021/08/03 00:06:31;;;;;;;3.70;2.23;;;15.30;99.90;;;;;;5048602;28;20235;-81
2021/08/03 00:09:01;;;;;;;2.87;2.37;;;15.30;99.90;;;;;;5048335;28;20232;-81
2021/08/03 00:11:30;;;;;;;2.60;1.97;;;15.30;99.90;;;;;;5043802;28;20240;-80
2021/08/03 00:14:00;;;;;;;4.27;2.20;;;15.30;99.90;;;;;;5028872;28;20569;-81
2021/08/03 00:16:30;;;;;;;3.20;2.40;;;15.30;99.90;;;;;;5043156;28;20255;-79
2021/08/03 00:18:59;;;;;;;2.57;2.07;;;15.30;99.90;;;;;;5056651;28;20247;-80
2021/08/03 00:21:27;;;;;;;2.60;2.40;;;15.40;99.90;;;;;;5048986;28;20263;-80
2021/08/03 00:23:56;;;;;;;3.43;2.17;;;15.40;99.90;;;;;;5048334;28;20231;-79
2021/08/03 00:26:26;;;;;;;2.87;2.10;;;15.40;99.90;;;;;;5054960;28;20253;-80
2021/08/03 00:28:55;;;;;;;4.20;2.30;;;15.40;99.90;;;;;;5062485;28;20289;-80
2021/08/03 00:31:25;;;;;;;3.57;2.07;;;15.50;99.90;;;;;;5048914;28;20227;-81
2021/08/03 00:33:55;;;;;;;3.27;1.93;;;15.50;99.90;;;;;;5049256;28;20235;-80
2021/08/03 00:36:26;;;;;;;4.67;2.20;;;15.50;99.90;;;;;;5048118;28;20334;-80
2021/08/03 00:38:56;;;;;;;3.33;2.00;;;15.50;99.90;;;;;;5048434;28;20315;-81
2021/08/03 00:41:31;;;;;;;3.20;2.17;;;15.50;99.90;;;;;;5041970;28;20247;-80
2021/08/03 00:44:00;;;;;;;2.83;2.33;;;15.50;99.90;;;;;;5058628;28;20325;-80
2021/08/03 00:46:28;;;;;;;2.87;2.00;;;15.50;99.90;;;;;;5054142;28;20258;-80
2021/08/03 00:48:58;;;;;;;4.10;2.03;;;15.50;99.90;;;;;;5069294;28;20698;-80
2021/08/03 00:51:31;;;;;;;5.07;2.43;;;15.50;99.90;;;;;;5067566;28;20274;-80
2021/08/03 00:54:00;;;;;;;3.00;2.17;;;15.50;99.90;;;;;;5047339;28;20314;-80
2021/08/03 00:56:34;;;;;;;5.87;2.37;;;15.50;99.90;;;;;;5049338;28;20639;-79
2021/08/03 00:59:03;;;;;;;4.83;2.53;;;15.50;99.90;;;;;;5047799;28;20232;-81
2021/08/03 01:01:31;;;;;;;3.90;2.37;;;15.50;99.90;;;;;;5054971;28;20246;-81
2021/08/03 01:04:01;;;;;;;3.63;2.23;;;15.40;99.90;;;;;;5051257;28;20289;-80
2021/08/03 01:06:35;;;;;;;4.20;2.43;;;15.30;99.90;;;;;;5047553;28;20254;-80
2021/08/03 01:09:09;;;;;;;3.33;2.10;;;15.30;99.90;;;;;;5049205;28;20235;-79
2021/08/03 01:11:47;;;;;;;3.07;2.27;;;15.20;99.90;;;;;;5048607;28;20258;-81
2021/08/03 01:14:24;;;;;;;4.87;2.33;;;15.20;99.90;;;;;;5060456;28;20604;-80
2021/08/03 01:16:57;;;;;;;3.53;1.93;;;15.30;99.90;;;;;;5049832;28;20328;-82
2021/08/03 01:19:39;;;;;;;4.17;2.20;;;15.40;99.90;;;;;;5067622;28;20254;-80
2021/08/03 01:22:32;;;;;;;2.43;2.20;;;15.40;99.90;;;;;;5060293;28;20242;-80
2021/08/03 01:25:13;;;;;;;7.13;2.30;;;15.40;99.90;;;;;;5048106;28;20624;-79
2021/08/03 01:28:11;;;;;;;4.70;2.23;;;15.30;99.90;;;;;;5029954;28;20236;-81
2021/08/03 01:30:46;;;;;;;2.43;2.23;;;15.40;99.90;;;;;;5021082;28;20256;-81
2021/08/03 01:33:19;;;;;;;3.30;2.30;;;15.40;99.90;;;;;;5010603;28;20232;-80
2021/08/03 01:35:50;;;;;;;3.67;2.30;;;15.30;99.90;;;;;;5027407;28;20228;-79
2021/08/03 01:38:21;;;;;;;4.20;2.43;;;15.20;99.90;;;;;;5048594;28;20295;-80
2021/08/03 01:40:53;;;;;;;4.73;2.73;;;15.30;99.90;;;;;;5028610;28;20311;-81
2021/08/03 01:43:23;;;;;;;4.97;2.70;;;15.30;99.90;;;;;;5029962;28;20238;-79
2021/08/03 01:45:55;;;;;;;2.80;2.50;;;15.20;99.90;;;;;;5012025;28;20229;-81
2021/08/03 01:48:26;;;;;;;3.30;2.77;;;15.20;99.90;;;;;;5010358;28;20592;-81
2021/08/03 01:50:55;;;;;;;4.17;2.33;;;15.20;99.90;;;;;;5010138;28;20236;-81
2021/08/03 01:53:29;;;;;;;2.87;2.30;;;15.20;99.90;;;;;;5010169;28;20240;-82
2021/08/03 01:55:59;;;;;;;2.77;2.57;;;15.10;99.90;;;;;;5028824;28;20236;-80
2021/08/03 01:58:32;;;;;;;3.33;2.70;;;15.20;99.90;;;;;;5030188;28;20700;-80
2021/08/03 02:01:14;;;;;;;3.80;2.50;;;15.10;99.90;;;;;;5038173;28;20233;-80
2021/08/03 02:03:43;;;;;;;3.87;2.53;;;15.20;99.90;;;;;;5006424;28;20619;-80
2021/08/03 02:06:15;;;;;;;2.77;2.50;;;15.20;99.90;;;;;;5028285;28;20679;-81
2021/08/03 02:08:46;;;;;;;3.23;2.90;;;15.10;99.90;;;;;;5027641;28;20237;-81
2021/08/03 02:11:19;;;;;;;3.73;2.63;;;15.10;99.90;;;;;;5015807;28;20232;-80
2021/08/03 02:13:52;;;;;;;4.50;2.30;;;15.10;99.90;;;;;;5021059;28;20256;-81
2021/08/03 02:16:34;;;;;;;5.83;2.77;;;15.10;99.90;;;;;;4998118;28;20596;-80
2021/08/03 02:19:04;;;;;;;4.93;2.70;;;15.10;99.90;;;;;;5010715;28;20510;-80
2021/08/03 02:21:44;;;;;;;4.43;2.80;;;15.10;99.90;;;;;;5024604;28;20239;-81
2021/08/03 02:24:16;;;;;;;3.17;2.70;;;15.10;99.90;;;;;;5029577;28;20251;-80
2021/08/03 02:26:44;;;;;;;4.20;2.90;;;15.20;99.90;;;;;;5038043;28;20232;-80
2021/08/03 02:29:14;;;;;;;3.57;2.70;;;15.10;99.90;;;;;;5027028;28;20279;-80
2021/08/03 02:31:47;;;;;;;3.03;2.40;;;15.10;99.90;;;;;;5044076;28;20307;-81
2021/08/03 02:34:23;;;;;;;3.30;2.67;;;15.10;99.90;;;;;;5047724;28;20694;-80
2021/08/03 02:36:57;;;;;;;3.97;2.60;;;15.10;99.90;;;;;;5045313;28;20263;-81
2021/08/03 02:39:28;;;;;;;3.73;2.90;;;15.10;99.90;;;;;;5045385;28;20319;-80
2021/08/03 02:41:57;;;;;;;3.07;2.77;;;15.10;99.90;;;;;;5058293;28;20693;-79
2021/08/03 02:44:29;;;;;;;3.70;2.63;;;15.10;99.90;;;;;;5054499;28;20289;-80
2021/08/03 02:47:02;;;;;;;3.60;2.17;;;15.00;99.90;;;;;;5047510;28;20231;-79
2021/08/03 02:49:45;;;;;;;3.23;2.23;;;15.00;99.90;;;;;;5045170;28;20480;-79
2021/08/03 02:52:15;;;;;;;3.17;2.47;;;15.00;99.90;;;;;;5047106;28;20235;-80
2021/08/03 02:54:48;;;;;;;5.53;2.50;;;15.10;99.90;;;;;;5047313;28;20232;-80
2021/08/03 02:57:18;;;;;;;3.63;2.60;;;15.00;99.90;;;;;;5062430;28;20240;-80
2021/08/03 02:59:51;;;;;;;3.80;2.70;;;15.10;99.90;;;;;;5045279;28;20243;-80
2021/08/03 03:02:20;;;;;;;2.90;2.23;;;15.10;99.90;;;;;;5059588;28;20235;-81
2021/08/03 03:05:01;;;;;;;2.70;2.50;;;15.00;99.90;;;;;;5066322;28;20654;-79
2021/08/03 03:07:33;;;;;;;2.70;2.30;;;15.10;99.90;;;;;;5050004;28;20286;-80
2021/08/03 03:10:07;;;;;;;3.93;2.47;;;15.10;99.90;;;;;;5065650;28;20228;-81
2021/08/03 03:12:37;;;;;;;5.23;2.57;;;15.10;99.90;;;;;;5049508;28;20236;-81
2021/08/03 03:15:10;;;;;;;4.07;2.70;;;15.10;99.90;;;;;;5030171;28;20290;-82
2021/08/03 03:17:39;;;;;;;3.77;2.43;;;15.20;99.90;;;;;;5064556;28;20317;-80
2021/08/03 03:20:08;;;;;;;3.60;2.57;;;15.10;99.90;;;;;;5059512;28;20243;-80
2021/08/03 03:22:43;;;;;;;3.67;2.70;;;15.10;99.90;;;;;;5048862;28;20726;-81
2021/08/03 03:25:13;;;;;;;3.50;2.37;;;15.00;99.90;;;;;;5049821;28;20721;-80
2021/08/03 03:27:44;;;;;;;3.93;2.60;;;15.10;99.90;;;;;;5048898;28;20236;-81
2021/08/03 03:30:16;;;;;;;2.73;2.47;;;15.10;99.90;;;;;;5048657;28;20285;-82
2021/08/03 03:32:46;;;;;;;5.20;2.90;;;15.10;99.90;;;;;;5050035;28;20243;-80
2021/08/03 03:35:16;;;;;;;2.87;2.57;;;15.00;99.90;;;;;;5049327;28;20236;-82
2021/08/03 03:37:45;;;;;;;4.27;2.70;;;15.10;99.90;;;;;;5031612;28;20707;-80
2021/08/03 03:40:16;;;;;;;3.83;2.60;;;15.20;99.90;;;;;;5042762;28;20900;-79
2021/08/03 03:42:48;;;;;;;3.27;2.53;;;15.10;99.90;;;;;;5050446;28;20262;-81
2021/08/03 03:45:19;;;;;;;3.60;2.77;;;15.20;99.90;;;;;;5051363;28;20322;-81
2021/08/03 03:47:56;;;;;;;5.53;2.90;;;15.00;99.90;;;;;;5050225;28;20695;-80
2021/08/03 03:50:31;;;;;;;4.57;3.37;;;14.90;99.90;;;;;;5050160;28;20228;-80
2021/08/03 03:53:06;;;;;;;5.10;3.00;;;15.00;99.90;;;;;;5069512;28;20304;-81
2021/08/03 03:55:35;;;;;;;3.50;2.90;;;14.90;99.90;;;;;;5070868;28;20298;-80
2021/08/03 03:58:05;;;;;;;3.47;2.90;;;14.90;99.90;;;;;;5045627;28;20279;-81
2021/08/03 04:00:38;;;;;;;3.77;2.50;;;14.80;99.90;;;;;;5038703;28;20301;-79
2021/08/03 04:03:09;;;;;;;3.80;2.90;;;14.80;99.90;;;;;;5048954;28;20310;-81
2021/08/03 04:05:41;;;;;;;3.43;2.80;;;14.90;99.90;;;;;;5050775;28;20240;-81
2021/08/03 04:08:11;;;;;;;3.40;2.70;;;14.80;99.90;;;;;;5069085;28;20564;-79
2021/08/03 04:10:40;;;;;;;5.67;2.90;;;14.90;99.90;;;;;;5062436;28;20738;-80
2021/08/03 04:13:11;;;;;;;4.13;2.50;;;15.00;99.90;;;;;;5068124;28;20246;-80
2021/08/03 04:15:41;;;;;;;3.93;2.63;;;15.00;99.90;;;;;;5068391;28;20603;-81
2021/08/03 04:18:10;;;;;;;4.43;2.53;;;15.00;99.90;;;;;;5050331;28;20330;-80
2021/08/03 04:20:40;;;;;;;2.90;2.60;;;15.00;99.90;;;;;;5046986;28;20263;-79
2021/08/03 04:23:09;;;;;;;3.13;2.40;;;15.10;99.90;;;;;;5047488;28;20235;-80
2021/08/03 04:25:37;;;;;;;4.20;2.07;;;15.00;99.90;;;;;;5050201;28;20236;-80
2021/08/03 04:28:05;;;;;;;2.23;2.00;;;15.10;99.90;;;;;;5050149;28;20604;-80
2021/08/03 04:30:33;;;;;;;2.90;2.43;;;15.20;99.90;;;;;;5049674;28;20235;-79
2021/08/03 04:33:03;;;;;;;3.17;2.13;;;15.10;99.90;;;;;;5049422;28;20710;-80
2021/08/03 04:35:31;;;;;;;4.10;2.10;;;15.00;99.90;;;;;;5049803;28;20267;-81
2021/08/03 04:37:59;;;;;;;3.97;2.23;;;15.00;99.90;;;;;;5069336;28;20242;-79
2021/08/03 04:40:27;;;;;;;3.10;2.30;;;14.90;99.90;;;;;;5068330;28;20307;-81
2021/08/03 04:42:56;;;;;;;4.13;2.10;;;14.90;99.90;;;;;;5047565;28;20231;-80
2021/08/03 04:45:25;;;;;;;2.73;1.90;;;14.90;99.90;;;;;;5049739;28;20228;-80
2021/08/03 04:47:54;;;;;;;3.77;2.40;;;14.90;99.90;;;;;;5047896;28;20232;-80
2021/08/03 04:50:26;;;;;;;2.90;1.80;;;15.00;99.90;;;;;;5049401;28;20700;-82
2021/08/03 04:52:56;;;;;;;2.80;2.10;;;15.00;99.90;;;;;;5064989;28;20234;-80
2021/08/03 04:55:25;;;;;;;1.90;1.50;;;14.90;99.90;;;;;;5048618;28;20249;-79
2021/08/03 04:57:53;;;;;;;2.20;1.83;;;15.10;99.90;;;;;;5066921;28;20242;-81
2021/08/03 05:00:21;;;;;;;2.20;1.80;;;15.20;99.90;;;;;;5067165;28;20315;-81
2021/08/03 05:02:49;;;;;;;2.03;1.83;;;15.10;99.90;;;;;;5067623;28;20239;-81
2021/08/03 05:05:17;;;;;;;3.07;1.90;;;15.10;99.90;;;;;;5047466;28;20236;-79
2021/08/03 05:07:58;;;;;;;2.27;1.77;;;15.20;99.90;;;;;;5047873;28;20247;-79
2021/08/03 05:10:27;;;;;;;1.83;1.70;;;15.40;99.90;;;;;;5047880;28;20261;-80
2021/08/03 05:12:56;;;;;;;4.17;2.00;;;15.30;99.90;;;;;;5047002;28;20231;-80
2021/08/03 05:15:25;;;;;;;4.57;1.97;;;15.30;99.90;;;;;;5047756;28;20285;-80
2021/08/03 05:17:53;;;;;;;3.27;1.80;;;15.30;99.90;;;;;;5048024;28;20314;-80
2021/08/03 05:20:21;;;;;;;2.17;1.97;;;15.30;99.90;;;;;;5047906;28;20231;-79
2021/08/03 05:22:50;;;;;;;2.07;1.87;;;15.20;99.90;;;;;;5047004;28;20519;-80
2021/08/03 05:25:20;;;;;;;3.73;1.80;;;15.30;99.90;;;;;;5047984;28;20247;-80
2021/08/03 05:27:48;;;;;;;2.37;1.97;;;15.30;99.90;;;;;;5047267;28;20364;-79
2021/08/03 05:30:16;;;;;;;2.13;1.70;;;15.30;99.90;;;;;;5047355;28;20290;-80
2021/08/03 05:32:44;;;;;;;2.37;1.40;;;15.30;99.90;;;;;;5053189;28;20355;-80
2021/08/03 05:35:12;;;;;;;1.60;1.43;;;15.30;99.90;;;;;;5047367;28;20239;-82
2021/08/03 05:37:41;;;;;;;2.63;1.50;;;15.50;99.90;;;;;;5064246;28;20281;-80
2021/08/03 05:40:12;;;;;;;1.70;1.60;;;15.50;99.90;;;;;;5068133;28;20227;-82
2021/08/03 05:42:42;;;;;;;1.50;1.40;;;15.70;99.90;;;;;;5051971;28;21787;-80
2021/08/03 05:45:12;;;;;;;1.77;1.63;;;15.70;99.90;;;;;;5058191;28;20243;-81
2021/08/03 05:47:40;;;;;;;3.43;1.43;;;15.90;99.90;;;;;;5045407;28;20570;-80
2021/08/03 05:50:09;;;;;;;1.63;1.40;;;15.90;99.90;;;;;;5048420;28;20282;-82
2021/08/03 05:52:37;;;;;;;1.53;1.37;;;15.90;99.90;;;;;;5047214;28;20231;-81
2021/08/03 05:55:07;;;;;;;1.90;1.40;;;16.00;99.90;;;;;;5048237;28;20243;-81
2021/08/03 05:57:35;;;;;;;3.10;1.40;;;16.10;99.90;;;;;;5059664;28;20769;-81
2021/08/03 06:00:05;;;;;;;1.83;1.37;;;16.20;99.90;;;;;;5037999;28;20236;-80
2021/08/03 06:02:40;;;;;;;1.37;1.20;;;16.30;99.90;;;;;;5062753;28;20280;-81
2021/08/03 06:05:10;;;;;;;1.63;1.20;;;16.40;99.90;;;;;;5066201;28;20239;-81
2021/08/03 06:07:42;;;;;;;1.60;1.27;;;16.50;99.90;;;;;;5065904;28;20322;-81
2021/08/03 06:10:13;;;;;;;1.83;1.13;;;16.60;99.90;;;;;;5081432;28;20247;-79
2021/08/03 06:12:46;;;;;;;1.10;1.00;;;16.70;99.90;;;;;;5061107;28;20711;-81
2021/08/03 06:15:15;;;;;;;3.23;0.90;;;16.70;99.90;;;;;;5066157;28;20242;-81
2021/08/03 06:17:45;;;;;;;1.20;0.90;;;16.80;99.90;;;;;;5065627;28;20309;-82
2021/08/03 06:20:14;;;;;;;1.77;1.20;;;16.90;99.90;;;;;;5050303;28;20247;-81
2021/08/03 06:22:43;;;;;;;1.47;1.07;;;17.00;99.90;;;;;;5042417;28;20240;-80
2021/08/03 06:25:15;;;;;;;1.17;1.07;;;17.00;99.90;;;;;;5044029;28;20241;-81
2021/08/03 06:27:44;;;;;;;0.90;0.90;;;17.10;99.90;;;;;;5062950;28;20239;-80
2021/08/03 06:30:13;;;;;;;2.90;1.27;;;17.20;99.90;;;;;;5065015;28;20227;-81
2021/08/03 06:32:44;;;;;;;1.63;1.10;;;17.10;99.90;;;;;;5045990;28;20536;-81
2021/08/03 06:35:15;;;;;;;3.10;1.30;;;17.20;99.90;;;;;;5045649;28;21024;-82
2021/08/03 06:37:43;;;;;;;1.57;1.17;;;17.20;99.90;;;;;;5045253;28;20650;-81
2021/08/03 06:40:12;;;;;;;3.73;1.30;;;17.20;99.90;;;;;;5045478;28;20232;-81
2021/08/03 06:42:48;;;;;;;2.03;1.37;;;17.30;99.90;;;;;;5048572;28;20331;-81
2021/08/03 06:45:19;;;;;;;3.13;1.33;;;17.40;99.90;;;;;;5045938;28;20227;-80
2021/08/03 06:47:54;;;;;;;2.07;1.23;;;17.50;99.90;;;;;;5045593;28;20717;-79
2021/08/03 06:50:27;;;;;;;1.30;1.20;;;17.60;99.90;;;;;;5043804;28;20231;-81
2021/08/03 06:52:57;;;;;;;2.37;1.33;;;17.70;99.90;;;;;;5042893;28;20240;-79
2021/08/03 06:55:29;;;;;;;1.73;1.43;;;17.90;99.90;;;;;;5045101;28;20318;-81
2021/08/03 06:58:02;;;;;;;2.17;1.40;;;17.90;99.90;;;;;;5045080;28;20241;-80
2021/08/03 07:00:38;;;;;;;4.70;1.57;;;18.10;99.90;;;;;;5045202;28;20278;-80
2021/08/03 07:03:09;;;;;;;1.27;1.10;;;18.10;99.90;;;;;;5034604;28;20229;-82
2021/08/03 07:05:43;;;;;;;1.53;1.30;;;18.20;99.90;;;;;;5044904;28;20237;-81
2021/08/03 07:08:15;;;;;;;3.33;1.50;;;18.20;99.90;;;;;;5025213;28;20245;-81
2021/08/03 07:10:46;;;;;;;2.73;1.60;;;18.20;99.90;;;;;;5027197;28;20280;-80
2021/08/03 07:13:14;;;;;;;2.10;1.20;;;18.50;99.90;;;;;;5036817;28;20244;-81
2021/08/03 07:15:42;;;;;;;2.83;1.40;;;18.70;99.90;;;;;;5041393;28;20314;-81
2021/08/03 07:18:13;;;;;;;2.63;1.37;;;18.90;99.90;;;;;;5044955;28;21064;-82
2021/08/03 07:20:42;;;;;;;2.00;1.80;;;19.10;99.90;;;;;;5038442;28;20250;-81
2021/08/03 07:23:12;;;;;;;2.10;1.90;;;19.30;99.90;;;;;;5038333;28;20251;-79
2021/08/03 07:25:41;;;;;;;1.53;1.40;;;19.20;99.90;;;;;;5037637;28;25377;-79
2021/08/03 07:28:09;;;;;;;2.33;1.70;;;19.20;99.90;;;;;;5033550;28;20663;-79
2021/08/03 07:30:37;;;;;;;3.63;1.70;;;19.30;99.90;;;;;;5033638;28;20234;-80
2021/08/03 07:33:05;;;;;;;2.30;1.40;;;19.20;99.90;;;;;;5025273;28;20266;-79
2021/08/03 07:35:35;;;;;;;1.53;1.40;;;19.20;99.90;;;;;;5042098;28;20246;-79
2021/08/03 07:38:03;;;;;;;3.60;1.50;;;19.30;99.90;;;;;;5021425;28;20293;-79
2021/08/03 07:40:31;;;;;;;2.17;1.50;;;19.40;99.90;;;;;;5024349;28;20665;-79
2021/08/03 07:43:00;;;;;;;1.40;1.23;;;19.30;99.90;;;;;;5045703;28;20242;-79
2021/08/03 07:45:28;;;;;;;3.20;1.33;;;19.60;99.90;;;;;;5045581;28;20304;-78
2021/08/03 07:47:58;;;;;;;1.87;1.30;;;20.00;99.90;;;;;;5045413;28;20235;-78
2021/08/03 07:50:26;;;;;;;1.50;1.00;;;20.40;99.90;;;;;;5045180;28;20317;-80
2021/08/03 07:52:56;;;;;;;1.73;1.40;;;20.70;99.90;;;;;;5044270;28;20250;-80
2021/08/03 07:55:24;;;;;;;1.67;1.17;;;21.10;99.90;;;;;;5046534;28;20238;-80
2021/08/03 07:57:52;;;;;;;2.50;1.07;;;21.70;99.90;;;;;;5068399;28;20237;-80
2021/08/03 08:00:20;;;;;;;0.87;0.87;;;22.20;99.90;;;;;;5069254;28;20244;-79
2021/08/03 08:02:49;;;;;;;2.23;1.10;;;22.30;99.90;;;;;;5059708;28;20602;-78
2021/08/03 08:05:18;;;;;;;2.00;1.17;;;22.50;99.90;;;;;;5050241;28;20692;-80
2021/08/03 08:07:46;;;;;;;0.90;0.77;;;22.60;99.90;;;;;;5067697;28;20321;-80
2021/08/03 08:10:16;;;;;;;1.83;1.00;;;22.80;99.90;;;;;;5069663;28;20238;-79
2021/08/03 08:12:44;;;;;;;2.00;1.03;;;23.10;99.90;;;;;;5062887;28;20987;-81
2021/08/03 08:15:13;;;;;;;1.27;1.10;;;23.20;99.90;;;;;;5049046;28;20324;-80
2021/08/03 08:17:41;;;;;;;1.47;1.00;;;23.40;99.90;;;;;;5067076;28;20741;-80
2021/08/03 08:20:13;;;;;;;1.20;0.90;;;23.80;99.90;;;;;;5067937;28;20560;-80
2021/08/03 08:22:42;;;;;;;1.33;0.70;;;23.90;99.90;;;;;;5043050;28;20240;-81
2021/08/03 08:25:12;;;;;;;1.67;0.90;;;23.90;99.90;;;;;;5040712;28;20240;-81
2021/08/03 08:27:43;;;;;;;2.23;0.87;;;24.10;99.90;;;;;;5039750;28;20237;-80
2021/08/03 08:30:12;;;;;;;1.50;0.70;;;24.30;99.90;;;;;;5038372;28;20254;-81
2021/08/03 08:32:42;;;;;;;0.73;0.60;;;24.20;99.90;;;;;;5064751;28;20239;-81
2021/08/03 08:35:31;;;;;;;1.17;0.80;;;23.80;99.90;;;;;;5057209;28;20236;-82
2021/08/03 08:37:59;;;;;;;3.03;1.10;;;23.10;99.90;;;;;;5047648;28;20233;-81
2021/08/03 08:40:27;;;;;;;1.57;0.80;;;22.60;99.90;;;;;;5048205;28;20240;-81
2021/08/03 08:42:57;;;;;;;2.03;0.77;;;22.20;99.90;;;;;;5049169;28;20683;-80
2021/08/03 08:45:25;;;;;;;2.30;0.83;;;22.10;99.90;;;;;;5048839;28;20236;-79
2021/08/03 08:47:53;;;;;;;1.37;0.50;;;21.90;99.90;;;;;;5048982;28;20658;-79
2021/08/03 08:50:25;;;;;;;1.63;0.70;;;21.70;99.90;;;;;;5049726;28;20289;-80
2021/08/03 08:52:56;;;;;;;3.03;0.90;;;21.50;99.90;;;;;;5067448;28;20292;-79
2021/08/03 08:55:25;;;;;;;1.73;1.00;;;21.50;99.90;;;;;;5063730;28;20236;-79
2021/08/03 08:57:54;;;;;;;1.27;0.60;;;21.80;99.90;;;;;;5068029;28;20644;-78
2021/08/03 09:00:38;;;;;;;0.82;0.70;;;22.70;99.90;;;;;;2861501;28;10003126;-78
2021/08/03 09:03:07;;;;;;;2.37;0.73;;;23.50;99.90;;;;;;4020037;28;10000935;-78
2021/08/03 09:05:37;;;;;;;1.30;0.70;;;24.00;99.90;;;;;;5064200;28;20279;-80
2021/08/03 09:08:07;;;;;;;2.60;0.77;;;24.60;99.90;;;;;;5042609;28;20237;-80
2021/08/03 09:10:41;;;;;;;1.80;0.70;;;24.90;99.90;;;;;;5036573;28;20235;-80
2021/08/03 09:13:16;;;;;;;0.80;0.63;;;25.30;99.90;;;;;;5033166;28;20299;-80
2021/08/03 09:15:47;;;;;;;0.80;0.60;;;25.30;99.90;;;;;;5038556;28;20894;-80
2021/08/03 09:18:24;;;;;;;2.07;0.77;;;25.00;99.90;;;;;;5044263;28;20608;-80
2021/08/03 09:20:53;;;;;;;1.00;0.70;;;25.30;99.90;;;;;;5037726;28;20593;-81
2021/08/03 09:23:21;;;;;;;2.03;1.00;;;25.70;99.90;;;;;;5037505;28;20269;-80
2021/08/03 09:25:55;;;;;;;2.20;0.70;;;26.20;99.90;;;;;;5045562;28;20300;-79
2021/08/03 09:28:23;;;;;;;1.33;0.60;;;26.20;99.90;;;;;;5037535;28;20679;-81
2021/08/03 09:30:54;;;;;;;2.00;0.70;;;26.10;99.90;;;;;;5039330;28;20262;-80
2021/08/03 09:33:26;;;;;;;0.83;0.60;;;25.50;99.90;;;;;;5038955;28;20228;-81
2021/08/03 09:35:55;;;;;;;1.47;0.60;;;24.80;99.90;;;;;;5040345;28;20242;-79
2021/08/03 09:38:24;;;;;;;1.27;0.63;;;24.40;99.90;;;;;;5043157;28;20664;-80
2021/08/03 09:40:55;;;;;;;1.83;0.60;;;24.10;99.90;;;;;;5040570;28;20237;-79
2021/08/03 09:43:28;;;;;;;1.63;0.70;;;24.40;99.90;;;;;;5037703;28;20290;-81
2021/08/03 09:45:59;;;;;;;1.70;0.70;;;24.90;99.90;;;;;;5037603;28;20641;-80
2021/08/03 09:48:29;;;;;;;1.57;0.77;;;25.00;99.90;;;;;;5039463;28;20300;-80
2021/08/03 09:51:01;;;;;;;1.33;0.70;;;24.20;99.90;;;;;;5039083;28;20682;-79
2021/08/03 09:53:44;;;;;;;1.97;0.80;;;24.20;99.90;;;;;;5036836;28;20287;-80
2021/08/03 09:56:15;;;;;;;2.57;1.00;;;23.60;99.90;;;;;;5038488;28;20320;-79
2021/08/03 09:58:55;;;;;;;2.77;0.87;;;23.30;99.90;;;;;;5038337;28;20583;-80
2021/08/03 10:01:33;;;;;;;2.23;1.00;;;22.90;99.90;;;;;;5043147;28;20240;-80
2021/08/03 10:04:04;;;;;;;1.47;0.90;;;22.40;99.90;;;;;;5037743;28;20283;-81
2021/08/03 10:06:32;;;;;;;1.30;0.90;;;22.30;99.90;;;;;;5036732;28;20241;-82
2021/08/03 10:09:01;;;;;;;1.17;0.70;;;22.20;99.90;;;;;;5044381;28;20763;-80
2021/08/03 10:11:29;;;;;;;1.37;0.77;;;22.20;99.90;;;;;;5039989;28;20239;-82
2021/08/03 10:14:15;;;;;;;1.80;0.60;;;22.10;99.90;;;;;;5037416;28;20319;-82
2021/08/03 10:16:45;;;;;;;2.77;0.90;;;22.20;99.90;;;;;;5035562;28;20323;-83
2021/08/03 10:19:21;;;;;;;2.07;0.93;;;22.30;99.90;;;;;;5036619;28;20328;-82
2021/08/03 10:21:59;;;;;;;1.30;0.87;;;22.20;99.90;;;;;;5038194;28;20262;-81
2021/08/03 10:24:31;;;;;;;2.27;0.70;;;22.20;99.90;;;;;;5034916;28;20692;-82
2021/08/03 10:27:07;;;;;;;1.63;0.80;;;22.50;99.90;;;;;;5036423;28;20233;-82
2021/08/03 10:29:39;;;;;;;1.03;0.70;;;22.40;99.90;;;;;;5039050;28;20738;-81
2021/08/03 10:32:41;;;;;;;1.47;1.37;;;22.40;99.90;;;;;;5031432;28;20457;-81
2021/08/03 10:35:15;;;;;;;4.20;0.80;;;22.60;99.90;;;;;;5032471;28;20236;-82
2021/08/03 10:38:12;;;;;;;2.00;0.90;;;22.80;99.90;;;;;;5035587;28;20239;-82
2021/08/03 10:41:01;;;;;;;1.80;0.90;;;23.90;99.90;;;;;;5037291;28;20233;-83
2021/08/03 10:43:41;;;;;;;2.27;0.70;;;24.50;99.90;;;;;;5049148;28;20260;-82
2021/08/03 10:46:38;;;;;;;2.00;0.70;;;24.80;99.90;;;;;;5034507;28;20239;-82
2021/08/03 10:49:09;;;;;;;1.10;0.77;;;24.90;99.90;;;;;;5034943;28;20233;-83
2021/08/03 10:51:55;;;;;;;1.97;0.80;;;25.30;99.90;;;;;;5037476;28;20331;-83
2021/08/03 10:54:30;;;;;;;1.77;0.90;;;25.40;99.90;;;;;;5036144;28;20226;-83
2021/08/03 10:57:22;;;;;;;1.20;0.70;;;25.70;99.90;;;;;;5036278;28;20618;-82
2021/08/03 11:00:00;;;;;;;2.53;0.73;;;25.40;99.90;;;;;;5039510;28;20225;-82
2021/08/03 11:02:48;;;;;;;1.47;0.70;;;24.90;99.90;;;;;;5036201;28;20263;-83
2021/08/03 11:05:33;;;;;;;0.90;0.80;;;24.40;99.90;;;;;;5033529;28;20234;-83
2021/08/03 11:08:43;;;;;;;1.10;0.70;;;24.50;99.90;;;;;;5038970;28;20708;-83
2021/08/03 11:11:13;;;;;;;1.33;0.60;;;25.20;99.90;;;;;;5037059;28;20260;-84
2021/08/03 11:13:47;;;;;;;1.07;0.80;;;25.30;99.90;;;;;;5034130;28;20771;-84
2021/08/03 11:16:55;;;;;;;1.60;0.90;;;25.60;99.90;;;;;;5042266;28;20268;-84
2021/08/03 11:19:36;;;;;;;2.07;0.87;;;25.70;99.90;;;;;;5036741;28;20284;-84
2021/08/03 11:22:08;;;;;;;1.20;0.80;;;25.80;99.90;;;;;;5036812;28;20244;-84
2021/08/03 11:24:42;;;;;;;1.87;0.83;;;25.40;99.90;;;;;;5039641;28;20246;-84
2021/08/03 11:27:22;;;;;;;0.67;0.60;;;25.10;99.90;;;;;;5037845;28;20713;-84
2021/08/03 11:29:52;;;;;;;1.67;0.70;;;24.90;99.90;;;;;;5043464;28;20711;-84
2021/08/03 11:32:21;;;;;;;1.13;0.70;;;24.60;99.90;;;;;;5039474;28;22854;-84
2021/08/03 11:34:56;;;;;;;2.60;0.80;;;24.40;99.90;;;;;;5040283;28;20257;-84
2021/08/03 11:37:27;;;;;;;1.67;0.80;;;24.20;99.90;;;;;;5043525;28;20276;-84
2021/08/03 11:39:56;;;;;;;1.13;0.73;;;24.20;99.90;;;;;;5041441;28;20237;-84
2021/08/03 11:42:37;;;;;;;2.93;0.70;;;24.10;99.90;;;;;;5039844;28;20775;-85
2021/08/03 11:45:10;;;;;;;1.30;0.77;;;24.10;99.90;;;;;;5051679;28;20263;-84
2021/08/03 11:47:41;;;;;;;1.10;0.60;;;24.10;99.90;;;;;;5041304;28;20224;-84
2021/08/03 11:50:10;;;;;;;1.10;0.80;;;24.00;99.90;;;;;;5042003;28;20291;-83
2021/08/03 11:52:39;;;;;;;1.17;0.70;;;23.70;99.90;;;;;;5032176;28;20247;-84
2021/08/03 11:55:12;;;;;;;1.97;0.70;;;23.40;99.90;;;;;;5041383;28;20231;-84
2021/08/03 11:57:42;;;;;;;1.17;0.70;;;23.50;99.90;;;;;;5040152;28;20699;-84
2021/08/03 12:00:13;;;;;;;1.10;0.70;;;23.60;99.90;;;;;;5039685;28;20812;-84
2021/08/03 12:02:44;;;;;;;2.10;0.90;;;23.70;99.90;;;;;;5043606;28;20252;-85
2021/08/03 12:05:25;;;;;;;1.90;0.90;;;23.60;99.90;;;;;;5039247;28;20671;-82
2021/08/03 12:08:07;;;;;;;1.57;0.80;;;23.70;99.90;;;;;;5041025;28;20244;-82
2021/08/03 12:10:38;;;;;;;2.00;0.87;;;23.90;99.90;;;;;;5047553;28;20243;-83
2021/08/03 12:13:08;;;;;;;1.23;0.80;;;23.90;99.90;;;;;;5045187;28;20263;-84
2021/08/03 12:15:47;;;;;;;1.33;1.10;;;24.10;99.90;;;;;;5041723;28;20368;-83
2021/08/03 12:18:16;;;;;;;1.37;0.80;;;24.10;99.90;;;;;;5038878;28;20315;-83
2021/08/03 12:20:53;;;;;;;2.17;0.63;;;24.10;99.90;;;;;;5040625;28;20240;-83
2021/08/03 12:23:27;;;;;;;2.37;0.70;;;24.00;99.90;;;;;;5044488;28;20783;-82
2021/08/03 12:25:59;;;;;;;0.77;0.60;;;23.90;99.90;;;;;;5043608;28;20236;-83
2021/08/03 12:28:38;;;;;;;4.60;1.00;;;23.90;99.90;;;;;;5044517;28;20234;-83
2021/08/03 12:31:23;;;;;;;0.70;0.70;;;23.90;99.90;;;;;;5043490;28;20250;-82
2021/08/03 12:33:52;;;;;;;1.40;0.70;;;24.00;99.90;;;;;;5044570;28;21056;-82
2021/08/03 12:36:21;;;;;;;2.23;0.70;;;24.00;99.90;;;;;;5043175;28;20289;-83
2021/08/03 12:39:22;;;;;;;1.30;0.80;;;24.00;99.90;;;;;;5041861;28;20236;-83
2021/08/03 12:42:09;;;;;;;2.07;0.97;;;24.20;99.90;;;;;;4966723;28;20247;-83
2021/08/03 12:44:40;;;;;;;1.43;0.70;;;24.20;99.90;;;;;;5039988;28;20290;-82
2021/08/03 12:47:13;;;;;;;1.27;0.70;;;24.30;99.90;;;;;;5044231;28;20334;-83
2021/08/03 12:49:43;;;;;;;2.60;0.90;;;24.10;99.90;;;;;;5043778;28;20959;-83
2021/08/03 12:52:14;;;;;;;1.30;1.10;;;24.10;99.90;;;;;;5047409;28;20237;-83
2021/08/03 12:54:56;;;;;;;1.23;0.70;;;24.40;99.90;;;;;;5048864;28;20245;-82
2021/08/03 12:57:39;;;;;;;1.27;0.80;;;24.70;99.90;;;;;;5049329;28;20268;-83
2021/08/03 13:00:26;;;;;;;0.90;0.90;;;24.90;99.90;;;;;;5041739;28;20318;-81
2021/08/03 13:02:55;;;;;;;1.33;1.00;;;25.10;99.90;;;;;;5043229;28;20246;-80
2021/08/03 13:05:24;;;;;;;1.07;0.80;;;25.40;99.90;;;;;;5029033;28;20310;-81
2021/08/03 13:07:52;;;;;;;0.90;0.70;;;25.30;99.90;;;;;;5046935;28;20244;-83
2021/08/03 13:10:22;;;;;;;1.97;0.90;;;25.30;99.90;;;;;;5028348;28;20238;-82
2021/08/03 13:12:50;;;;;;;2.50;0.90;;;25.00;99.90;;;;;;5045490;28;20716;-83